Weather at Elverum Starmoen Airport

Public forecast

Using degrees Celsius for public forecast. Weather courtesy of forecast.io.

Closest aviation weather report (METAR) to Elverum Starmoen Airport

Report is more than 6 hours old.

Closest report is Scandinavian Mountains Airport, 37.9 nm (70.2 km) ENE.

2022/11/14 15:20 (retrieved 2 years ago)

ESKS 141520Z AUTO 02002KT 0250 R15/0900D R33/1100U FG VV002 00/00 Q1021

Closest aviation forecast (TAF) to Elverum Starmoen Airport

Forecast is more than 12 hours old.

Closest forecast is Oslo Airport, Gardermoen, 44.5 nm (82.5 km) SSW.

2023/02/22 18:36 (retrieved 1 year ago)

TAF ENGM 221700Z 2218/2318 17010KT 9000 -SN SCT012 BKN025 BECMG 2218/2220 4000 -SN SCT004 BKN012 TEMPO 2220/2305 1200 SN BR VV004 BECMG 2307/2309 01012KT 9999 NSW SCT030